Time;durP1;ratioP1;P1;durP2;ratioP2;P2;SDS_P1;SDS_P2;PMS_P1;PMS_P2;Temp;Humidity;BMP_temperature;BMP_pressure;BME280_temperature;BME280_humidity;BME280_pressure;Samples;Min_cycle;Max_cycle;Signal;HPM_P1;HPM_P2
2022/09/14 00:00:08;;;;;;;3.17;1.80;;;23.40;74.20;;;;;;10862653;32;20050;-77
2022/09/14 00:06:29;;;;;;;4.57;2.08;;;23.40;74.30;;;;;;10849841;32;20047;-77
2022/09/14 00:12:31;;;;;;;5.87;2.20;;;23.40;74.40;;;;;;10862085;32;20042;-77
2022/09/14 00:18:34;;;;;;;2.53;1.67;;;23.40;74.50;;;;;;10861959;32;20058;-77
2022/09/14 00:24:36;;;;;;;2.28;1.73;;;23.40;74.30;;;;;;10863031;27;20039;-77
2022/09/14 00:30:41;;;;;;;2.00;1.50;;;23.40;74.50;;;;;;10859865;32;20046;-77
2022/09/14 00:36:46;;;;;;;4.43;2.30;;;23.40;74.50;;;;;;10861773;32;20347;-77
2022/09/14 00:42:48;;;;;;;3.15;1.98;;;23.30;74.70;;;;;;10857187;32;20031;-74
2022/09/14 00:49:23;;;;;;;3.37;1.60;;;23.30;74.70;;;;;;10859263;32;20127;-74
2022/09/14 00:55:25;;;;;;;4.53;2.47;;;23.40;74.70;;;;;;10856871;32;20024;-73
2022/09/14 01:01:28;;;;;;;3.97;2.95;;;23.40;74.70;;;;;;10860817;32;20415;-74
2022/09/14 01:07:58;;;;;;;2.75;1.75;;;23.30;74.70;;;;;;10866096;32;20024;-74
2022/09/14 01:14:22;;;;;;;5.32;2.28;;;23.30;74.80;;;;;;10914531;32;20046;-74
2022/09/14 01:20:50;;;;;;;3.55;2.05;;;23.30;74.90;;;;;;10866835;32;20020;-74
2022/09/14 01:27:18;;;;;;;2.40;1.98;;;23.20;75.10;;;;;;10866524;32;20023;-74
2022/09/14 01:33:28;;;;;;;3.72;1.58;;;23.10;75.20;;;;;;10918136;32;20387;-74
2022/09/14 01:39:43;;;;;;;3.70;1.73;;;23.20;75.20;;;;;;10862190;32;20395;-74
2022/09/14 01:45:49;;;;;;;3.25;2.80;;;23.20;75.20;;;;;;10861881;32;20057;-74
2022/09/14 01:51:58;;;;;;;8.82;2.80;;;23.10;75.30;;;;;;10866011;32;20024;-74
2022/09/14 01:58:25;;;;;;;3.05;2.10;;;23.10;75.40;;;;;;10865801;32;20023;-74
2022/09/14 02:04:58;;;;;;;2.47;2.10;;;23.00;75.60;;;;;;10916784;32;20024;-74
2022/09/14 02:11:01;;;;;;;4.05;2.47;;;23.00;75.70;;;;;;10905389;32;20035;-74
2022/09/14 02:17:03;;;;;;;1.50;1.27;;;23.00;75.80;;;;;;10904476;32;20130;-77
2022/09/14 02:23:07;;;;;;;4.55;2.37;;;23.00;76.00;;;;;;10904220;32;20347;-77
2022/09/14 02:29:09;;;;;;;2.20;2.00;;;23.00;75.90;;;;;;10892811;32;20059;-77
2022/09/14 02:35:39;;;;;;;4.90;2.47;;;23.00;75.90;;;;;;10900605;32;20046;-77
2022/09/14 02:42:26;;;;;;;2.70;2.17;;;23.00;75.90;;;;;;10899445;32;20023;-77
2022/09/14 02:48:33;;;;;;;3.60;2.17;;;23.00;75.70;;;;;;10928880;32;20317;-78
2022/09/14 02:54:56;;;;;;;2.97;2.25;;;22.90;75.80;;;;;;10864593;32;20347;-77
2022/09/14 03:00:58;;;;;;;3.15;1.92;;;22.90;75.80;;;;;;10860164;32;20323;-77
2022/09/14 03:07:00;;;;;;;12.73;2.75;;;22.90;75.80;;;;;;10863913;32;20027;-78
2022/09/14 03:13:02;;;;;;;2.10;1.60;;;22.90;75.80;;;;;;10863927;32;20054;-77
2022/09/14 03:19:05;;;;;;;3.12;1.73;;;22.80;75.80;;;;;;10863722;32;20031;-78
2022/09/14 03:25:07;;;;;;;2.67;2.15;;;22.80;76.00;;;;;;10863314;32;20019;-77
2022/09/14 03:31:11;;;;;;;3.67;2.53;;;22.80;76.10;;;;;;10862886;32;20059;-76
2022/09/14 03:37:15;;;;;;;3.33;2.35;;;22.80;76.30;;;;;;10863109;32;20066;-76
2022/09/14 03:43:17;;;;;;;4.15;2.80;;;22.80;76.50;;;;;;10863053;32;20027;-77
2022/09/14 03:49:18;;;;;;;4.32;2.33;;;22.70;76.50;;;;;;10862818;32;20057;-77
2022/09/14 03:55:20;;;;;;;6.10;3.83;;;22.80;76.50;;;;;;10862643;32;20019;-77
2022/09/14 04:01:24;;;;;;;5.00;2.75;;;22.70;76.60;;;;;;10858472;32;20039;-77
2022/09/14 04:07:27;;;;;;;3.25;2.55;;;22.70;76.50;;;;;;10861330;32;20027;-77
2022/09/14 04:13:29;;;;;;;3.35;2.40;;;22.80;76.60;;;;;;10862215;32;20055;-77
2022/09/14 04:19:33;;;;;;;3.97;2.80;;;22.70;76.60;;;;;;10858054;32;20024;-78
2022/09/14 04:25:35;;;;;;;4.93;2.85;;;22.70;76.60;;;;;;10857712;32;20028;-77
2022/09/14 04:31:37;;;;;;;5.55;2.95;;;22.70;76.70;;;;;;10912801;32;20032;-78
2022/09/14 04:37:41;;;;;;;4.43;3.20;;;22.60;76.80;;;;;;10858670;32;20051;-78
2022/09/14 04:43:45;;;;;;;3.08;2.28;;;22.60;76.80;;;;;;10915741;32;20054;-77
2022/09/14 04:49:47;;;;;;;4.32;2.45;;;22.60;76.70;;;;;;10868080;32;20417;-77
2022/09/14 04:55:48;;;;;;;3.78;2.83;;;22.60;76.70;;;;;;10868049;32;20019;-77
2022/09/14 05:01:50;;;;;;;4.32;3.15;;;22.60;76.70;;;;;;10867740;32;20107;-77
2022/09/14 05:07:52;;;;;;;5.00;3.10;;;22.60;76.80;;;;;;10867806;32;20395;-77
2022/09/14 05:13:56;;;;;;;2.37;2.05;;;22.60;77.00;;;;;;10841927;32;20032;-77
2022/09/14 05:19:58;;;;;;;4.15;2.65;;;22.50;77.20;;;;;;10830089;32;20021;-78
2022/09/14 05:26:01;;;;;;;4.57;2.72;;;22.50;77.30;;;;;;10829441;33;20031;-77
2022/09/14 05:32:03;;;;;;;6.03;3.65;;;22.50;77.40;;;;;;10827302;33;20339;-78
2022/09/14 05:38:05;;;;;;;4.40;2.95;;;22.50;77.40;;;;;;10880108;32;20021;-78
2022/09/14 05:44:07;;;;;;;4.53;2.78;;;22.50;77.50;;;;;;10824349;33;20024;-78
2022/09/14 05:50:10;;;;;;;8.18;3.37;;;22.50;77.50;;;;;;10828476;32;20066;-77
2022/09/14 05:56:12;;;;;;;5.28;3.35;;;22.50;77.50;;;;;;10829620;33;20055;-77
2022/09/14 06:02:15;;;;;;;5.87;3.67;;;22.50;77.70;;;;;;10824417;33;20016;-77
2022/09/14 06:08:17;;;;;;;4.47;2.97;;;22.50;77.80;;;;;;10828166;33;20024;-77
2022/09/14 06:14:20;;;;;;;4.45;2.85;;;22.50;77.80;;;;;;10846538;32;20383;-78
2022/09/14 06:20:24;;;;;;;5.50;4.12;;;22.60;77.80;;;;;;10873620;32;20064;-80
2022/09/14 06:26:26;;;;;;;6.37;4.25;;;22.60;77.60;;;;;;10846461;32;20031;-77
2022/09/14 06:32:36;;;;;;;7.82;4.30;;;22.70;77.60;;;;;;10853392;32;20059;-77
2022/09/14 06:38:41;;;;;;;5.12;3.60;;;22.80;77.50;;;;;;10853445;32;20036;-78
2022/09/14 06:45:04;;;;;;;5.05;3.33;;;22.80;77.40;;;;;;10852409;32;20051;-78
2022/09/14 06:51:42;;;;;;;7.00;4.77;;;23.00;77.30;;;;;;10787042;32;20078;-78
2022/09/14 06:57:47;;;;;;;5.32;3.70;;;23.00;77.30;;;;;;10786038;32;20500;-77
2022/09/14 07:03:51;;;;;;;6.28;3.40;;;23.00;77.30;;;;;;10780572;33;20352;-77
2022/09/14 07:09:53;;;;;;;5.25;3.28;;;23.10;77.40;;;;;;10785277;33;20028;-75
2022/09/14 07:15:55;;;;;;;4.75;3.55;;;23.20;77.30;;;;;;10780433;33;20047;-77
2022/09/14 07:21:57;;;;;;;5.78;3.90;;;23.30;77.10;;;;;;10785169;32;20059;-76
2022/09/14 07:28:06;;;;;;;13.80;4.47;;;23.30;77.10;;;;;;10784072;33;20036;-78
2022/09/14 07:34:09;;;;;;;5.10;3.55;;;23.40;76.90;;;;;;10779882;33;20028;-78
2022/09/14 07:40:11;;;;;;;5.43;3.75;;;23.50;76.70;;;;;;10756381;33;20395;-78
2022/09/14 07:46:14;;;;;;;4.60;3.30;;;23.70;76.50;;;;;;10766591;33;20048;-77
2022/09/14 07:52:20;;;;;;;5.50;3.15;;;23.70;76.30;;;;;;10804085;32;20028;-77
2022/09/14 07:58:21;;;;;;;5.20;2.87;;;23.80;76.20;;;;;;10911794;32;20023;-78
2022/09/14 08:04:41;;;;;;;6.12;3.40;;;23.90;76.10;;;;;;10861132;32;20043;-75
2022/09/14 08:10:43;;;;;;;7.35;3.65;;;24.00;75.90;;;;;;10860895;32;20032;-77
2022/09/14 08:16:45;;;;;;;3.30;2.65;;;24.00;76.20;;;;;;10860539;32;20045;-77
2022/09/14 08:22:46;;;;;;;6.97;3.95;;;24.10;76.00;;;;;;10484535;27;11992999;-75
2022/09/14 08:28:49;;;;;;;5.97;3.87;;;24.20;76.10;;;;;;10816484;33;20355;-72
2022/09/14 08:34:51;;;;;;;4.78;2.87;;;24.30;76.10;;;;;;10817702;33;20054;-73
2022/09/14 08:40:53;;;;;;;5.32;3.08;;;24.40;76.00;;;;;;10819329;33;20032;-75
2022/09/14 08:47:03;;;;;;;3.80;1.90;;;24.50;76.00;;;;;;10827321;32;20019;-74
2022/09/14 08:53:04;;;;;;;5.25;1.98;;;24.60;75.80;;;;;;10855569;32;20046;-74
2022/09/14 08:59:44;;;;;;;2.00;1.67;;;24.80;75.60;;;;;;10846434;32;20024;-75
2022/09/14 09:06:38;;;;;;;2.22;1.45;;;24.80;75.40;;;;;;10673963;33;20017;-74
2022/09/14 09:13:06;;;;;;;4.12;2.10;;;24.80;75.40;;;;;;10528007;33;20166;-74
2022/09/14 09:19:16;;;;;;;3.40;1.60;;;24.90;75.40;;;;;;10528866;33;20035;-74
2022/09/14 09:25:29;;;;;;;21.23;2.70;;;25.00;75.40;;;;;;10532240;33;20038;-74
2022/09/14 09:31:52;;;;;;;3.80;2.40;;;25.00;75.40;;;;;;10521385;33;20093;-77
2022/09/14 09:37:55;;;;;;;4.57;2.10;;;25.00;75.20;;;;;;10536986;33;20054;-74
2022/09/14 09:44:08;;;;;;;2.87;1.50;;;25.10;75.10;;;;;;10655159;33;20031;-76
2022/09/14 09:50:13;;;;;;;5.35;2.50;;;25.20;74.80;;;;;;10823604;33;20384;-75
2022/09/14 09:56:56;;;;;;;5.32;2.53;;;25.30;74.50;;;;;;10827238;33;20020;-75
2022/09/14 10:03:13;;;;;;;3.50;1.90;;;25.30;74.20;;;;;;10638419;33;20033;-75
2022/09/14 10:09:22;;;;;;;6.27;2.57;;;25.30;74.10;;;;;;10637926;33;20037;-74
2022/09/14 10:15:29;;;;;;;4.25;3.22;;;25.40;73.40;;;;;;10637811;33;20117;-73
2022/09/14 10:21:30;;;;;;;12.10;3.70;;;25.40;72.70;;;;;;10641224;33;20072;-73
2022/09/14 10:27:38;;;;;;;5.50;2.58;;;25.50;72.20;;;;;;10639995;33;20033;-75
2022/09/14 10:33:41;;;;;;;7.05;3.75;;;25.70;72.00;;;;;;10691655;33;20054;-76
2022/09/14 10:40:09;;;;;;;4.00;2.53;;;25.60;71.70;;;;;;10826000;32;20059;-75
2022/09/14 10:46:27;;;;;;;4.30;2.90;;;25.60;71.40;;;;;;10825719;33;20063;-75
2022/09/14 10:52:32;;;;;;;2.40;1.60;;;25.80;71.20;;;;;;10821199;33;20336;-74
2022/09/14 10:58:53;;;;;;;4.57;2.47;;;26.00;70.70;;;;;;10821603;33;20043;-75
2022/09/14 11:05:23;;;;;;;4.68;2.37;;;26.50;70.00;;;;;;10808107;33;20050;-76
2022/09/14 11:11:58;;;;;;;6.15;3.00;;;26.70;68.80;;;;;;10825401;33;20024;-76
2022/09/14 11:18:00;;;;;;;12.20;3.85;;;27.10;67.90;;;;;;10827357;32;20490;-73
2022/09/14 11:24:29;;;;;;;4.43;3.12;;;27.30;66.80;;;;;;10826223;32;20058;-75
2022/09/14 11:30:52;;;;;;;3.80;2.35;;;27.70;65.80;;;;;;10824323;32;20387;-73
2022/09/14 11:37:10;;;;;;;8.00;2.42;;;28.00;65.40;;;;;;10825874;32;20031;-76
2022/09/14 11:43:24;;;;;;;5.37;1.95;;;28.20;64.40;;;;;;10825932;32;20111;-73
2022/09/14 11:50:00;;;;;;;7.25;3.17;;;28.30;63.10;;;;;;10824098;32;20051;-75
2022/09/14 11:56:04;;;;;;;4.72;2.60;;;27.90;62.60;;;;;;10820007;33;20028;-73
2022/09/14 12:02:25;;;;;;;5.07;2.60;;;27.80;62.60;;;;;;10824136;33;20050;-75
2022/09/14 12:08:30;;;;;;;8.45;2.85;;;27.80;62.50;;;;;;10823626;33;20340;-73
2022/09/14 12:14:34;;;;;;;4.22;2.15;;;27.70;61.80;;;;;;10823881;33;20020;-75
2022/09/14 12:20:37;;;;;;;5.90;2.37;;;27.60;62.20;;;;;;10823515;32;20036;-75
2022/09/14 12:26:40;;;;;;;7.32;2.45;;;27.80;62.10;;;;;;10809091;32;20399;-77
2022/09/14 12:32:43;;;;;;;8.88;2.70;;;27.80;61.50;;;;;;10810679;32;20020;-77
2022/09/14 12:45:49;;;;;;;4.72;2.50;;;27.90;61.40;;;;;;10823739;33;20058;-76
2022/09/14 12:51:53;;;;;;;4.30;1.90;;;28.10;61.20;;;;;;10822973;33;20024;-75
2022/09/14 12:58:41;;;;;;;3.17;1.73;;;28.30;61.00;;;;;;10823286;32;20032;-77
2022/09/14 13:04:46;;;;;;;4.67;2.67;;;28.40;61.30;;;;;;10825300;33;20388;-74
2022/09/14 13:10:51;;;;;;;6.25;1.92;;;28.20;61.60;;;;;;10829224;33;20101;-75
2022/09/14 13:16:54;;;;;;;2.20;1.60;;;28.00;62.20;;;;;;10829038;33;20020;-76
2022/09/14 13:22:57;;;;;;;2.92;1.95;;;27.90;62.70;;;;;;10828414;33;20024;-76
2022/09/14 13:29:00;;;;;;;3.35;2.20;;;27.90;62.90;;;;;;10824146;33;20040;-75
2022/09/14 13:35:04;;;;;;;3.37;1.80;;;27.90;63.00;;;;;;10824134;33;20024;-75
2022/09/14 13:41:35;;;;;;;2.17;1.90;;;27.90;63.10;;;;;;10824680;33;20312;-75
2022/09/14 13:47:38;;;;;;;3.12;1.67;;;28.00;63.10;;;;;;10828131;33;20007;-76
2022/09/14 13:54:20;;;;;;;2.35;1.95;;;28.10;63.00;;;;;;10824204;33;20028;-74
2022/09/14 14:00:22;;;;;;;3.05;1.45;;;28.40;62.60;;;;;;10811254;33;20036;-76
2022/09/14 14:06:30;;;;;;;3.60;1.73;;;28.70;62.30;;;;;;10827299;33;20054;-75
2022/09/14 14:12:38;;;;;;;3.03;2.05;;;28.70;61.60;;;;;;10826873;32;20046;-76
2022/09/14 14:18:42;;;;;;;2.60;1.65;;;28.70;61.70;;;;;;10825384;33;20066;-75
2022/09/14 14:24:47;;;;;;;3.15;1.77;;;28.50;61.60;;;;;;10827304;33;20054;-75
2022/09/14 14:31:20;;;;;;;2.37;1.58;;;28.50;61.80;;;;;;10826826;33;20024;-76
2022/09/14 14:37:24;;;;;;;4.15;2.25;;;28.40;61.40;;;;;;10823515;33;20301;-74
2022/09/14 14:43:27;;;;;;;3.03;1.45;;;28.50;61.30;;;;;;10825985;33;20063;-75
2022/09/14 14:49:29;;;;;;;3.65;1.87;;;28.40;61.10;;;;;;10822098;33;20031;-74
2022/09/14 14:55:32;;;;;;;5.85;2.08;;;28.30;61.50;;;;;;10821850;33;20063;-75
2022/09/14 15:01:35;;;;;;;3.42;1.55;;;28.30;61.60;;;;;;10825812;33;20024;-74
2022/09/14 15:07:37;;;;;;;1.65;1.33;;;28.20;61.80;;;;;;10821545;33;20039;-75
2022/09/14 15:13:39;;;;;;;4.70;1.60;;;28.30;61.80;;;;;;10824296;33;20045;-74
2022/09/14 15:19:41;;;;;;;4.12;2.92;;;28.30;61.80;;;;;;10823319;33;20134;-75
2022/09/14 15:25:44;;;;;;;2.62;1.77;;;28.30;61.70;;;;;;10824160;32;20046;-75
2022/09/14 15:31:46;;;;;;;5.07;2.33;;;28.30;61.70;;;;;;10825048;33;20351;-73
2022/09/14 15:37:48;;;;;;;2.35;1.60;;;28.30;61.90;;;;;;10824634;32;20418;-74
2022/09/14 15:43:51;;;;;;;3.15;2.15;;;28.20;62.00;;;;;;10821027;33;20024;-74
2022/09/14 15:49:53;;;;;;;2.58;1.62;;;28.10;62.20;;;;;;10825550;33;20038;-73
2022/09/14 15:55:55;;;;;;;4.00;1.42;;;28.00;62.40;;;;;;10821447;33;20351;-73
2022/09/14 16:01:57;;;;;;;4.15;2.80;;;28.00;62.60;;;;;;10820864;32;20062;-73
2022/09/14 16:07:59;;;;;;;3.70;2.37;;;27.90;62.80;;;;;;10824360;33;20074;-73
2022/09/14 16:14:04;;;;;;;3.03;1.77;;;27.90;62.80;;;;;;10818094;33;20055;-74
2022/09/14 16:20:09;;;;;;;4.00;1.73;;;27.80;62.80;;;;;;10834788;27;20101;-74
2022/09/14 16:26:14;;;;;;;5.22;1.83;;;27.80;63.00;;;;;;10898786;32;20128;-73
2022/09/14 16:32:16;;;;;;;2.22;1.48;;;27.80;63.30;;;;;;10898649;32;20024;-73
2022/09/14 16:38:22;;;;;;;3.45;1.45;;;27.80;63.50;;;;;;10894075;32;20054;-78
2022/09/14 16:44:35;;;;;;;3.25;1.83;;;27.60;63.60;;;;;;10886348;32;20379;-78
2022/09/14 16:50:37;;;;;;;4.72;2.45;;;27.60;63.70;;;;;;10894190;32;20323;-78
2022/09/14 16:56:39;;;;;;;2.87;1.92;;;27.60;63.90;;;;;;10880961;32;20047;-78
2022/09/14 17:02:42;;;;;;;5.43;1.83;;;27.50;64.10;;;;;;10897989;32;20085;-76
2022/09/14 17:09:00;;;;;;;2.92;2.05;;;27.40;64.40;;;;;;10896430;32;20031;-74
2022/09/14 17:15:02;;;;;;;2.75;1.65;;;27.10;65.30;;;;;;10865251;32;20062;-75
2022/09/14 17:21:31;;;;;;;2.80;1.67;;;26.80;66.00;;;;;;10856395;32;20031;-75
2022/09/14 17:27:33;;;;;;;4.82;2.10;;;26.80;66.40;;;;;;10860289;32;20070;-76
2022/09/14 17:33:35;;;;;;;3.42;2.15;;;26.70;66.60;;;;;;10847116;32;20070;-76
2022/09/14 17:39:37;;;;;;;5.82;2.12;;;26.60;66.90;;;;;;10846892;32;20032;-76
2022/09/14 17:46:13;;;;;;;3.15;2.05;;;26.50;67.10;;;;;;10861012;32;20050;-76
2022/09/14 17:52:15;;;;;;;3.62;2.60;;;26.50;67.40;;;;;;10866071;32;20027;-76
2022/09/14 17:58:37;;;;;;;4.87;2.08;;;26.30;67.70;;;;;;10866070;32;20042;-75
2022/09/14 18:04:39;;;;;;;5.05;2.83;;;26.30;67.90;;;;;;10848434;32;20035;-74
2022/09/14 18:10:41;;;;;;;6.32;2.12;;;26.10;68.20;;;;;;10865691;32;20347;-75
2022/09/14 18:16:43;;;;;;;3.15;1.92;;;26.10;68.50;;;;;;10860616;32;20027;-75
2022/09/14 18:22:45;;;;;;;4.93;2.72;;;26.10;68.60;;;;;;10864167;32;20031;-75
2022/09/14 18:28:49;;;;;;;3.62;2.00;;;26.00;68.70;;;;;;10864965;32;20380;-76
2022/09/14 18:34:52;;;;;;;6.62;2.28;;;26.00;68.70;;;;;;10861701;32;20380;-75
2022/09/14 18:41:04;;;;;;;4.53;2.22;;;26.00;68.80;;;;;;10846835;32;20437;-75
2022/09/14 18:47:06;;;;;;;4.68;2.80;;;26.00;69.00;;;;;;10860973;32;20408;-75
2022/09/14 18:53:09;;;;;;;7.15;2.90;;;25.90;69.10;;;;;;10864135;32;20056;-75
2022/09/14 18:59:13;;;;;;;3.05;2.20;;;25.80;69.30;;;;;;10859728;32;20028;-75
2022/09/14 19:05:16;;;;;;;5.97;2.30;;;25.80;69.40;;;;;;10863619;32;20204;-75
2022/09/14 19:11:21;;;;;;;18.92;3.17;;;25.80;69.40;;;;;;10846272;32;20520;-75
2022/09/14 19:17:23;;;;;;;5.93;3.50;;;25.80;69.50;;;;;;10863271;32;20032;-76
2022/09/14 19:23:26;;;;;;;4.18;2.72;;;25.70;69.80;;;;;;10845931;32;20031;-76
2022/09/14 19:29:28;;;;;;;6.62;2.28;;;25.60;69.90;;;;;;10862950;32;20024;-75
2022/09/14 19:35:32;;;;;;;5.28;3.17;;;25.60;69.90;;;;;;10863064;32;20027;-75
2022/09/14 19:41:57;;;;;;;3.45;2.50;;;25.60;70.00;;;;;;10862753;32;20037;-75
2022/09/14 19:54:56;;;;;;;6.22;3.10;;;25.60;70.20;;;;;;10862356;32;20059;-75
2022/09/14 20:00:59;;;;;;;9.23;2.62;;;25.60;70.20;;;;;;10844992;32;20046;-76
2022/09/14 20:07:03;;;;;;;6.50;3.45;;;25.50;70.30;;;;;;10861940;32;20054;-76
2022/09/14 20:13:05;;;;;;;4.47;2.97;;;25.50;70.30;;;;;;10857183;32;20103;-76
2022/09/14 20:19:13;;;;;;;5.80;3.05;;;25.60;70.30;;;;;;10860267;32;20400;-76
2022/09/14 20:25:15;;;;;;;3.65;2.35;;;25.60;70.30;;;;;;10848020;32;20430;-76
2022/09/14 20:31:18;;;;;;;4.35;2.65;;;25.60;70.20;;;;;;10848368;32;20028;-76
2022/09/14 20:37:20;;;;;;;3.53;2.78;;;25.60;70.30;;;;;;10861522;32;20019;-76
2022/09/14 20:43:22;;;;;;;3.72;2.47;;;25.50;70.40;;;;;;10843952;32;20063;-76
2022/09/14 20:49:25;;;;;;;6.78;3.00;;;25.50;70.50;;;;;;10861397;32;20019;-76
2022/09/14 20:55:27;;;;;;;3.60;2.60;;;25.50;70.50;;;;;;10856909;32;20024;-77
2022/09/14 21:01:32;;;;;;;5.90;3.05;;;25.40;70.60;;;;;;10847846;32;20104;-77
2022/09/14 21:07:34;;;;;;;4.75;3.10;;;25.30;70.90;;;;;;10847609;32;20356;-77
2022/09/14 21:13:37;;;;;;;4.37;2.78;;;25.20;71.20;;;;;;10860819;32;20019;-76
2022/09/14 21:19:39;;;;;;;10.90;3.35;;;25.20;71.30;;;;;;10860826;32;20370;-76
2022/09/14 21:25:41;;;;;;;5.78;3.97;;;25.10;71.30;;;;;;10865938;32;20028;-76
2022/09/14 21:31:43;;;;;;;11.60;3.83;;;25.10;71.30;;;;;;10866771;32;20403;-76
2022/09/14 21:37:50;;;;;;;6.97;3.78;;;25.00;71.30;;;;;;10866481;32;20103;-76
2022/09/14 21:43:53;;;;;;;4.47;3.20;;;25.00;71.40;;;;;;10866334;32;20105;-77
2022/09/14 21:49:56;;;;;;;6.53;2.92;;;24.90;71.40;;;;;;10866246;32;20028;-76
2022/09/14 21:55:58;;;;;;;5.45;3.08;;;24.90;71.50;;;;;;10866050;32;20054;-77
2022/09/14 22:02:00;;;;;;;4.37;3.42;;;24.80;71.50;;;;;;10865862;32;20054;-76
2022/09/14 22:08:10;;;;;;;3.28;2.75;;;24.80;71.60;;;;;;10865654;32;20071;-77
2022/09/14 22:14:17;;;;;;;5.90;3.97;;;24.80;71.60;;;;;;10861480;32;20082;-77
2022/09/14 22:20:18;;;;;;;7.37;4.00;;;24.80;71.60;;;;;;10865441;32;20058;-76
2022/09/14 22:26:22;;;;;;;5.37;3.53;;;24.80;71.80;;;;;;10861040;32;20027;-77
2022/09/14 22:32:24;;;;;;;4.32;3.60;;;24.70;71.70;;;;;;10862176;32;20031;-77
2022/09/14 22:38:29;;;;;;;5.43;3.30;;;24.70;71.80;;;;;;10864903;32;20020;-77
2022/09/14 22:44:31;;;;;;;3.80;2.92;;;24.70;71.80;;;;;;10860453;32;20035;-77
2022/09/14 22:50:33;;;;;;;4.80;2.58;;;24.70;71.80;;;;;;10860398;32;20063;-77
2022/09/14 22:56:38;;;;;;;3.25;2.40;;;24.60;71.80;;;;;;10860369;32;20049;-77
2022/09/14 23:02:39;;;;;;;4.40;2.62;;;24.60;71.90;;;;;;10846965;32;20024;-77
2022/09/14 23:08:42;;;;;;;4.20;2.17;;;24.60;71.90;;;;;;10864136;32;20055;-77
2022/09/14 23:14:44;;;;;;;5.15;3.05;;;24.70;71.90;;;;;;10859682;32;20050;-77
2022/09/14 23:20:46;;;;;;;3.83;2.72;;;24.60;71.90;;;;;;10861431;32;20050;-77
2022/09/14 23:26:48;;;;;;;3.28;2.03;;;24.60;72.00;;;;;;10859317;32;20070;-74
2022/09/14 23:32:51;;;;;;;4.22;2.60;;;24.50;72.10;;;;;;10863243;32;20031;-73
2022/09/14 23:38:53;;;;;;;6.50;2.75;;;24.50;72.10;;;;;;10863131;32;20071;-73
2022/09/14 23:44:55;;;;;;;6.20;3.40;;;24.50;72.20;;;;;;10844926;32;20039;-73
2022/09/14 23:51:02;;;;;;;4.10;2.78;;;24.50;72.20;;;;;;10862834;32;20028;-73
2022/09/14 23:57:04;;;;;;;4.90;2.77;;;24.50;72.20;;;;;;10862660;32;20028;-73
